Overview Statistics Trail Chart Weather Telemetry Raw packets
 

This is the latest recevied weather packets stored in our database for station/object TB1YZC-13. If no packets are shown the sender has not sent any weather packets the latest 10 day(s).

<< 19 20 21 22 23 24 25 >>
Time Temp. Humidity Pressure Rain* Wind** Luminosity Snow
1788368113 22.78° C 82% 1018 hPa - - - -
1788367509 23.33° C 80% 1017.8 hPa - - - -
1788366906 23.33° C 78% 1017.8 hPa - - - -
1788366303 23.33° C 77% 1017.9 hPa - - - -
1788365698 23.89° C 75% 1018.1 hPa - - - -
1788365095 23.89° C 72% 1018.1 hPa - - - -
1788364493 24.44° C 69% 1018.1 hPa - - - -
1788363889 24.44° C 68% 1018.1 hPa - - - -
1788363286 24.44° C 65% 1018.2 hPa - - - -
1788362683 25° C 62% 1018.2 hPa - - - -
1788362080 25.56° C 59% 1018.1 hPa - - - -
1788361476 25.56° C 59% 1018.3 hPa - - - -
1788360873 25.56° C 57% 1018.3 hPa - - - -
1788360270 26.11° C 55% 1018.2 hPa - - - -
1788359667 26.67° C 52% 1018.3 hPa - - - -
1788359065 27.22° C 48% 1018.2 hPa - - - -
1788358460 27.78° C 45% 1018.3 hPa - - - -
1788357857 28.89° C 43% 1018.2 hPa - - - -
1788357254 30° C 41% 1018.1 hPa - - - -
1788356650 30° C 43% 1018.1 hPa - - - -
1788356047 30° C 44% 1018.3 hPa - - - -
1788355444 30° C 42% 1018.3 hPa - - - -
1788354841 30.56° C 41% 1018.3 hPa - - - -
1788354237 31.11° C 42% 1018.3 hPa - - - -
1788353634 30° C 45% 1018.4 hPa - - - -

* Rain since midnight (hover to see other rain measurements)
** Current wind speed in m/s (hover to see current wind gust speed)